sensor_id;sensor_type;location;lat;lon;timestamp;pressure;altitude;pressure_sealevel;temperature;humidity
19594;BME280;9944;48.240;16.478;2023-01-30T00:03:45;100376.28;;;-3.66;73.15
19594;BME280;9944;48.240;16.478;2023-01-30T00:07:48;100378.06;;;-3.65;73.16
19594;BME280;9944;48.240;16.478;2023-01-30T00:11:53;100373.59;;;-3.67;72.84
19594;BME280;9944;48.240;16.478;2023-01-30T00:15:56;100368.34;;;-3.69;72.96
19594;BME280;9944;48.240;16.478;2023-01-30T00:19:59;100364.22;;;-3.80;72.83
19594;BME280;9944;48.240;16.478;2023-01-30T00:24:03;100352.31;;;-3.92;72.59
19594;BME280;9944;48.240;16.478;2023-01-30T00:28:07;100351.34;;;-4.07;72.48
19594;BME280;9944;48.240;16.478;2023-01-30T00:32:10;100337.88;;;-4.16;72.42
19594;BME280;9944;48.240;16.478;2023-01-30T00:36:14;100344.22;;;-4.24;72.68
19594;BME280;9944;48.240;16.478;2023-01-30T00:40:17;100334.53;;;-4.29;72.77
19594;BME280;9944;48.240;16.478;2023-01-30T00:44:22;100322.16;;;-4.34;72.85
19594;BME280;9944;48.240;16.478;2023-01-30T00:48:43;100312.13;;;-4.43;72.87
19594;BME280;9944;48.240;16.478;2023-01-30T00:52:46;100314.50;;;-4.46;73.00
19594;BME280;9944;48.240;16.478;2023-01-30T00:56:49;100307.75;;;-4.44;73.33
19594;BME280;9944;48.240;16.478;2023-01-30T01:00:53;100303.50;;;-4.43;73.52
19594;BME280;9944;48.240;16.478;2023-01-30T01:04:57;100297.25;;;-4.47;73.35
19594;BME280;9944;48.240;16.478;2023-01-30T01:09:01;100290.13;;;-4.51;73.46
19594;BME280;9944;48.240;16.478;2023-01-30T01:13:04;100284.56;;;-4.57;73.34
19594;BME280;9944;48.240;16.478;2023-01-30T01:17:10;100261.38;;;-4.57;73.70
19594;BME280;9944;48.240;16.478;2023-01-30T01:21:13;100259.53;;;-4.60;73.45
19594;BME280;9944;48.240;16.478;2023-01-30T01:25:20;100258.81;;;-4.57;73.93
19594;BME280;9944;48.240;16.478;2023-01-30T01:29:23;100252.97;;;-4.55;74.11
19594;BME280;9944;48.240;16.478;2023-01-30T01:33:28;100258.41;;;-4.50;74.11
19594;BME280;9944;48.240;16.478;2023-01-30T01:37:31;100254.44;;;-4.45;74.48
19594;BME280;9944;48.240;16.478;2023-01-30T01:41:35;100253.75;;;-4.42;74.26
19594;BME280;9944;48.240;16.478;2023-01-30T01:45:38;100244.34;;;-4.42;74.35
19594;BME280;9944;48.240;16.478;2023-01-30T01:49:43;100230.47;;;-4.44;74.11
19594;BME280;9944;48.240;16.478;2023-01-30T01:53:52;100227.00;;;-4.44;74.47
19594;BME280;9944;48.240;16.478;2023-01-30T01:57:59;100218.38;;;-4.45;74.36
19594;BME280;9944;48.240;16.478;2023-01-30T02:02:08;100216.81;;;-4.43;74.42
19594;BME280;9944;48.240;16.478;2023-01-30T02:06:15;100204.91;;;-4.41;74.76
19594;BME280;9944;48.240;16.478;2023-01-30T02:10:21;100192.03;;;-4.41;74.27
19594;BME280;9944;48.240;16.478;2023-01-30T02:14:25;100187.66;;;-4.42;74.37
19594;BME280;9944;48.240;16.478;2023-01-30T02:18:29;100170.44;;;-4.43;74.23
19594;BME280;9944;48.240;16.478;2023-01-30T02:23:01;100170.34;;;-4.44;74.22
19594;BME280;9944;48.240;16.478;2023-01-30T02:27:30;100157.16;;;-4.49;74.33
19594;BME280;9944;48.240;16.478;2023-01-30T02:31:40;100164.78;;;-4.51;74.46
19594;BME280;9944;48.240;16.478;2023-01-30T02:35:51;100157.44;;;-4.44;74.88
19594;BME280;9944;48.240;16.478;2023-01-30T02:40:17;100150.31;;;-4.49;74.52
19594;BME280;9944;48.240;16.478;2023-01-30T02:44:27;100144.38;;;-4.48;74.71
19594;BME280;9944;48.240;16.478;2023-01-30T02:48:38;100126.34;;;-4.48;74.99
19594;BME280;9944;48.240;16.478;2023-01-30T02:52:44;100121.47;;;-4.43;75.14
19594;BME280;9944;48.240;16.478;2023-01-30T02:56:50;100110.91;;;-4.33;75.46
19594;BME280;9944;48.240;16.478;2023-01-30T03:01:13;100118.25;;;-4.25;75.46
19594;BME280;9944;48.240;16.478;2023-01-30T03:05:34;100112.84;;;-4.15;75.69
19594;BME280;9944;48.240;16.478;2023-01-30T03:09:46;100115.16;;;-4.05;75.87
19594;BME280;9944;48.240;16.478;2023-01-30T03:13:54;100100.06;;;-3.99;75.84
19594;BME280;9944;48.240;16.478;2023-01-30T03:17:58;100086.91;;;-3.88;76.24
19594;BME280;9944;48.240;16.478;2023-01-30T03:22:03;100096.97;;;-3.78;76.54
19594;BME280;9944;48.240;16.478;2023-01-30T03:26:10;100093.31;;;-3.67;76.64
19594;BME280;9944;48.240;16.478;2023-01-30T03:30:18;100088.69;;;-3.58;76.68
19594;BME280;9944;48.240;16.478;2023-01-30T03:34:22;100083.78;;;-3.53;76.55
19594;BME280;9944;48.240;16.478;2023-01-30T03:38:27;100074.97;;;-3.57;76.13
19594;BME280;9944;48.240;16.478;2023-01-30T03:42:30;100054.78;;;-3.64;75.21
19594;BME280;9944;48.240;16.478;2023-01-30T03:46:33;100058.63;;;-3.72;75.62
19594;BME280;9944;48.240;16.478;2023-01-30T03:50:37;100069.75;;;-3.73;75.18
19594;BME280;9944;48.240;16.478;2023-01-30T03:54:42;100061.13;;;-3.88;75.63
19594;BME280;9944;48.240;16.478;2023-01-30T03:58:45;100052.56;;;-3.87;75.38
19594;BME280;9944;48.240;16.478;2023-01-30T04:02:57;100051.78;;;-3.86;75.50
19594;BME280;9944;48.240;16.478;2023-01-30T04:07:00;100046.81;;;-3.83;75.92
19594;BME280;9944;48.240;16.478;2023-01-30T04:11:06;100041.84;;;-3.80;75.94
19594;BME280;9944;48.240;16.478;2023-01-30T04:15:10;100036.13;;;-3.75;75.92
19594;BME280;9944;48.240;16.478;2023-01-30T04:19:32;100037.47;;;-3.66;76.10
19594;BME280;9944;48.240;16.478;2023-01-30T04:23:35;100029.00;;;-3.64;75.97
19594;BME280;9944;48.240;16.478;2023-01-30T04:27:42;100022.22;;;-3.62;75.80
19594;BME280;9944;48.240;16.478;2023-01-30T04:31:51;100022.22;;;-3.62;75.62
19594;BME280;9944;48.240;16.478;2023-01-30T04:35:59;100008.34;;;-3.64;75.59
19594;BME280;9944;48.240;16.478;2023-01-30T04:40:04;100010.84;;;-3.65;75.71
19594;BME280;9944;48.240;16.478;2023-01-30T04:44:10;100009.03;;;-3.52;76.16
19594;BME280;9944;48.240;16.478;2023-01-30T04:48:28;100003.78;;;-3.38;76.57
19594;BME280;9944;48.240;16.478;2023-01-30T04:52:33;99996.00;;;-3.07;76.92
19594;BME280;9944;48.240;16.478;2023-01-30T04:56:38;99992.47;;;-2.76;76.71
19594;BME280;9944;48.240;16.478;2023-01-30T05:00:43;99989.47;;;-2.51;76.50
19594;BME280;9944;48.240;16.478;2023-01-30T05:04:48;99997.66;;;-2.25;75.90
19594;BME280;9944;48.240;16.478;2023-01-30T05:08:53;99981.31;;;-2.08;75.63
19594;BME280;9944;48.240;16.478;2023-01-30T05:13:00;99986.28;;;-1.94;75.13
19594;BME280;9944;48.240;16.478;2023-01-30T05:17:05;99971.34;;;-1.82;74.77
19594;BME280;9944;48.240;16.478;2023-01-30T05:21:12;99959.81;;;-1.71;74.24
19594;BME280;9944;48.240;16.478;2023-01-30T05:25:16;99955.22;;;-1.58;74.33
19594;BME280;9944;48.240;16.478;2023-01-30T05:29:19;99957.31;;;-1.51;73.86
19594;BME280;9944;48.240;16.478;2023-01-30T05:33:24;99938.50;;;-1.47;73.66
19594;BME280;9944;48.240;16.478;2023-01-30T05:37:27;99930.19;;;-1.40;73.49
19594;BME280;9944;48.240;16.478;2023-01-30T05:41:30;99945.13;;;-1.34;73.30
19594;BME280;9944;48.240;16.478;2023-01-30T05:45:34;99935.88;;;-1.29;72.96
19594;BME280;9944;48.240;16.478;2023-01-30T05:49:38;99956.66;;;-1.28;72.39
19594;BME280;9944;48.240;16.478;2023-01-30T05:53:41;99958.69;;;-1.20;72.41
19594;BME280;9944;48.240;16.478;2023-01-30T05:57:44;99956.25;;;-1.17;72.20
19594;BME280;9944;48.240;16.478;2023-01-30T06:01:47;99954.56;;;-1.17;72.07
19594;BME280;9944;48.240;16.478;2023-01-30T06:05:52;99949.59;;;-1.12;72.12
19594;BME280;9944;48.240;16.478;2023-01-30T06:09:55;99945.34;;;-1.10;72.14
19594;BME280;9944;48.240;16.478;2023-01-30T06:13:58;99949.75;;;-1.09;72.12
19594;BME280;9944;48.240;16.478;2023-01-30T06:18:01;99978.22;;;-1.09;72.17
19594;BME280;9944;48.240;16.478;2023-01-30T06:22:05;99964.59;;;-1.05;72.00
19594;BME280;9944;48.240;16.478;2023-01-30T06:26:08;99959.47;;;-1.03;71.96
19594;BME280;9944;48.240;16.478;2023-01-30T06:30:12;99944.16;;;-0.99;71.89
19594;BME280;9944;48.240;16.478;2023-01-30T06:34:15;99946.88;;;-0.96;71.83
19594;BME280;9944;48.240;16.478;2023-01-30T06:38:20;99934.81;;;-0.95;71.77
19594;BME280;9944;48.240;16.478;2023-01-30T06:42:23;99916.75;;;-0.94;71.53
19594;BME280;9944;48.240;16.478;2023-01-30T06:46:26;99903.16;;;-0.88;71.54
19594;BME280;9944;48.240;16.478;2023-01-30T06:50:30;99918.16;;;-0.81;72.36
19594;BME280;9944;48.240;16.478;2023-01-30T06:54:35;99907.44;;;-0.69;72.03
19594;BME280;9944;48.240;16.478;2023-01-30T06:58:38;99910.25;;;-0.64;71.58
19594;BME280;9944;48.240;16.478;2023-01-30T07:02:41;99904.06;;;-0.68;71.44
19594;BME280;9944;48.240;16.478;2023-01-30T07:06:44;99890.25;;;-0.67;71.38
19594;BME280;9944;48.240;16.478;2023-01-30T07:10:48;99893.94;;;-0.62;70.78
19594;BME280;9944;48.240;16.478;2023-01-30T07:14:52;99901.00;;;-0.58;70.57
19594;BME280;9944;48.240;16.478;2023-01-30T07:18:55;99909.13;;;-0.50;70.03
19594;BME280;9944;48.240;16.478;2023-01-30T07:22:59;99899.69;;;-0.48;69.96
19594;BME280;9944;48.240;16.478;2023-01-30T07:27:05;99911.16;;;-0.43;69.82
19594;BME280;9944;48.240;16.478;2023-01-30T07:31:08;99924.38;;;-0.37;69.70
19594;BME280;9944;48.240;16.478;2023-01-30T07:35:12;99935.84;;;-0.32;69.72
19594;BME280;9944;48.240;16.478;2023-01-30T07:39:15;99943.78;;;-0.27;69.38
19594;BME280;9944;48.240;16.478;2023-01-30T07:43:20;99943.94;;;-0.24;69.33
19594;BME280;9944;48.240;16.478;2023-01-30T07:47:23;99923.44;;;-0.18;68.99
19594;BME280;9944;48.240;16.478;2023-01-30T07:51:26;99894.06;;;-0.17;68.72
19594;BME280;9944;48.240;16.478;2023-01-30T07:55:29;99898.59;;;-0.13;68.48
19594;BME280;9944;48.240;16.478;2023-01-30T07:59:33;99882.31;;;-0.08;68.37
19594;BME280;9944;48.240;16.478;2023-01-30T08:03:36;99892.91;;;-0.02;68.15
19594;BME280;9944;48.240;16.478;2023-01-30T08:07:39;99890.44;;;0.01;67.25
19594;BME280;9944;48.240;16.478;2023-01-30T08:11:42;99860.38;;;0.06;67.00
19594;BME280;9944;48.240;16.478;2023-01-30T08:15:47;99874.56;;;0.14;66.76
19594;BME280;9944;48.240;16.478;2023-01-30T08:19:50;99872.16;;;0.19;66.08
19594;BME280;9944;48.240;16.478;2023-01-30T08:23:53;99867.19;;;0.25;65.88
19594;BME280;9944;48.240;16.478;2023-01-30T08:27:57;99844.22;;;0.36;65.33
19594;BME280;9944;48.240;16.478;2023-01-30T08:32:02;99825.34;;;0.40;64.52
19594;BME280;9944;48.240;16.478;2023-01-30T08:36:06;99827.22;;;0.44;64.44
19594;BME280;9944;48.240;16.478;2023-01-30T08:40:10;99818.94;;;0.54;64.14
19594;BME280;9944;48.240;16.478;2023-01-30T08:44:13;99805.34;;;0.61;64.14
19594;BME280;9944;48.240;16.478;2023-01-30T08:48:17;99795.28;;;0.71;63.96
19594;BME280;9944;48.240;16.478;2023-01-30T08:52:20;99791.47;;;0.85;63.80
19594;BME280;9944;48.240;16.478;2023-01-30T08:56:24;99783.19;;;0.95;63.41
19594;BME280;9944;48.240;16.478;2023-01-30T09:00:27;99784.31;;;1.04;62.89
19594;BME280;9944;48.240;16.478;2023-01-30T09:04:32;99774.13;;;1.10;63.18
19594;BME280;9944;48.240;16.478;2023-01-30T09:08:34;99771.94;;;1.22;62.72
19594;BME280;9944;48.240;16.478;2023-01-30T09:12:38;99785.22;;;1.31;62.23
19594;BME280;9944;48.240;16.478;2023-01-30T09:16:41;99771.47;;;1.34;62.24
19594;BME280;9944;48.240;16.478;2023-01-30T09:20:45;99764.66;;;1.37;62.59
19594;BME280;9944;48.240;16.478;2023-01-30T09:24:48;99745.69;;;1.42;62.80
19594;BME280;9944;48.240;16.478;2023-01-30T09:28:51;99751.00;;;1.45;62.75
19594;BME280;9944;48.240;16.478;2023-01-30T09:32:54;99744.13;;;1.47;62.35
19594;BME280;9944;48.240;16.478;2023-01-30T09:37:00;99714.47;;;1.42;62.36
19594;BME280;9944;48.240;16.478;2023-01-30T09:41:18;99720.53;;;1.41;62.17
19594;BME280;9944;48.240;16.478;2023-01-30T09:45:37;99704.84;;;1.37;61.73
19594;BME280;9944;48.240;16.478;2023-01-30T09:49:51;99671.94;;;1.39;61.45
19594;BME280;9944;48.240;16.478;2023-01-30T09:54:13;99668.53;;;1.41;61.76
19594;BME280;9944;48.240;16.478;2023-01-30T09:58:19;99665.16;;;1.45;60.86
19594;BME280;9944;48.240;16.478;2023-01-30T10:02:37;99652.28;;;1.48;61.28
19594;BME280;9944;48.240;16.478;2023-01-30T10:06:48;99623.19;;;1.61;61.22
19594;BME280;9944;48.240;16.478;2023-01-30T10:10:58;99623.53;;;1.73;60.99
19594;BME280;9944;48.240;16.478;2023-01-30T10:15:21;99602.88;;;1.80;61.31
19594;BME280;9944;48.240;16.478;2023-01-30T10:19:44;99601.28;;;1.85;61.77
19594;BME280;9944;48.240;16.478;2023-01-30T10:24:03;99591.81;;;1.87;61.80
19594;BME280;9944;48.240;16.478;2023-01-30T10:28:17;99575.38;;;1.88;62.05
19594;BME280;9944;48.240;16.478;2023-01-30T10:32:26;99565.03;;;1.91;61.79
19594;BME280;9944;48.240;16.478;2023-01-30T10:36:38;99553.09;;;1.98;61.97
19594;BME280;9944;48.240;16.478;2023-01-30T10:40:45;99522.81;;;2.01;61.63
19594;BME280;9944;48.240;16.478;2023-01-30T10:44:53;99530.53;;;1.98;61.78
19594;BME280;9944;48.240;16.478;2023-01-30T10:49:04;99550.53;;;2.01;61.76
19594;BME280;9944;48.240;16.478;2023-01-30T10:53:12;99527.16;;;2.02;61.92
19594;BME280;9944;48.240;16.478;2023-01-30T10:57:24;99529.75;;;2.02;61.70
19594;BME280;9944;48.240;16.478;2023-01-30T11:01:36;99534.19;;;2.05;62.21
19594;BME280;9944;48.240;16.478;2023-01-30T11:05:46;99532.53;;;2.08;61.92
19594;BME280;9944;48.240;16.478;2023-01-30T11:09:51;99539.75;;;2.19;62.18
19594;BME280;9944;48.240;16.478;2023-01-30T11:14:03;99530.47;;;2.30;61.44
19594;BME280;9944;48.240;16.478;2023-01-30T11:18:08;99496.03;;;2.42;60.53
19594;BME280;9944;48.240;16.478;2023-01-30T11:22:33;99494.63;;;2.56;59.46
19594;BME280;9944;48.240;16.478;2023-01-30T11:26:37;99455.75;;;2.64;58.46
19594;BME280;9944;48.240;16.478;2023-01-30T11:30:52;99492.34;;;2.70;57.34
19594;BME280;9944;48.240;16.478;2023-01-30T11:35:25;99492.41;;;2.73;57.06
19594;BME280;9944;48.240;16.478;2023-01-30T11:39:29;99497.72;;;2.76;57.23
19594;BME280;9944;48.240;16.478;2023-01-30T11:43:33;99466.59;;;2.84;57.00
19594;BME280;9944;48.240;16.478;2023-01-30T11:47:38;99453.84;;;2.98;57.24
19594;BME280;9944;48.240;16.478;2023-01-30T11:52:00;99426.25;;;3.07;57.70
19594;BME280;9944;48.240;16.478;2023-01-30T11:56:06;99416.16;;;3.24;56.94
19594;BME280;9944;48.240;16.478;2023-01-30T12:00:16;99426.69;;;3.31;56.70
19594;BME280;9944;48.240;16.478;2023-01-30T12:04:21;99413.81;;;3.38;57.06
19594;BME280;9944;48.240;16.478;2023-01-30T12:08:31;99397.38;;;3.42;56.73
19594;BME280;9944;48.240;16.478;2023-01-30T12:12:45;99408.66;;;3.43;56.21
19594;BME280;9944;48.240;16.478;2023-01-30T12:16:57;99402.59;;;3.42;56.60
19594;BME280;9944;48.240;16.478;2023-01-30T12:21:05;99399.06;;;3.40;56.52
19594;BME280;9944;48.240;16.478;2023-01-30T12:25:20;99410.31;;;3.38;57.25
19594;BME280;9944;48.240;16.478;2023-01-30T12:29:28;99420.72;;;3.35;57.73
19594;BME280;9944;48.240;16.478;2023-01-30T12:33:33;99410.97;;;3.26;58.19
19594;BME280;9944;48.240;16.478;2023-01-30T12:37:45;99419.47;;;3.16;58.84
19594;BME280;9944;48.240;16.478;2023-01-30T12:42:12;99430.63;;;3.10;59.13
19594;BME280;9944;48.240;16.478;2023-01-30T12:46:41;99430.53;;;3.04;59.87
19594;BME280;9944;48.240;16.478;2023-01-30T12:50:59;99428.75;;;3.03;60.39
19594;BME280;9944;48.240;16.478;2023-01-30T12:55:18;99447.00;;;3.03;60.86
19594;BME280;9944;48.240;16.478;2023-01-30T12:59:29;99436.63;;;3.04;61.14
19594;BME280;9944;48.240;16.478;2023-01-30T13:03:40;99444.31;;;3.00;62.74
19594;BME280;9944;48.240;16.478;2023-01-30T13:07:54;99432.84;;;2.90;63.26
19594;BME280;9944;48.240;16.478;2023-01-30T13:12:08;99430.06;;;2.82;63.75
19594;BME280;9944;48.240;16.478;2023-01-30T13:16:21;99450.84;;;2.78;64.31
19594;BME280;9944;48.240;16.478;2023-01-30T13:20:38;99450.72;;;2.73;64.74
19594;BME280;9944;48.240;16.478;2023-01-30T13:24:52;99448.91;;;2.69;65.41
19594;BME280;9944;48.240;16.478;2023-01-30T13:29:00;99440.09;;;2.64;66.08
19594;BME280;9944;48.240;16.478;2023-01-30T13:33:10;99433.00;;;2.57;66.99
19594;BME280;9944;48.240;16.478;2023-01-30T13:37:16;99443.28;;;2.50;67.38
19594;BME280;9944;48.240;16.478;2023-01-30T13:41:20;99444.84;;;2.44;68.47
19594;BME280;9944;48.240;16.478;2023-01-30T13:45:27;99438.72;;;2.42;69.08
19594;BME280;9944;48.240;16.478;2023-01-30T13:49:41;99451.59;;;2.34;69.26
19594;BME280;9944;48.240;16.478;2023-01-30T13:53:51;99442.81;;;2.32;69.46
19594;BME280;9944;48.240;16.478;2023-01-30T13:58:03;99441.09;;;2.31;70.45
19594;BME280;9944;48.240;16.478;2023-01-30T14:02:18;99409.69;;;2.25;70.95
19594;BME280;9944;48.240;16.478;2023-01-30T14:06:40;99402.56;;;2.18;71.46
19594;BME280;9944;48.240;16.478;2023-01-30T14:10:43;99395.53;;;2.13;72.58
19594;BME280;9944;48.240;16.478;2023-01-30T14:14:59;99399.81;;;2.10;72.73
19594;BME280;9944;48.240;16.478;2023-01-30T14:19:19;99395.47;;;2.10;72.42
19594;BME280;9944;48.240;16.478;2023-01-30T14:33:58;99390.38;;;2.17;73.35
19594;BME280;9944;48.240;16.478;2023-01-30T14:38:12;99400.16;;;2.25;72.96
19594;BME280;9944;48.240;16.478;2023-01-30T14:42:22;99396.84;;;2.32;72.18
19594;BME280;9944;48.240;16.478;2023-01-30T14:46:53;99395.19;;;2.36;71.94
19594;BME280;9944;48.240;16.478;2023-01-30T14:51:18;99408.34;;;2.42;71.63
19594;BME280;9944;48.240;16.478;2023-01-30T14:55:23;99422.22;;;2.41;71.17
19594;BME280;9944;48.240;16.478;2023-01-30T14:59:30;99417.97;;;2.45;71.02
19594;BME280;9944;48.240;16.478;2023-01-30T15:03:34;99421.56;;;2.50;70.82
19594;BME280;9944;48.240;16.478;2023-01-30T15:07:44;99421.59;;;2.51;70.59
19594;BME280;9944;48.240;16.478;2023-01-30T15:11:52;99427.72;;;2.53;70.53
19594;BME280;9944;48.240;16.478;2023-01-30T15:16:07;99431.16;;;2.52;70.92
19594;BME280;9944;48.240;16.478;2023-01-30T15:20:22;99435.53;;;2.53;70.77
19594;BME280;9944;48.240;16.478;2023-01-30T15:25:09;99430.41;;;2.57;70.80
19594;BME280;9944;48.240;16.478;2023-01-30T15:29:33;99439.84;;;2.53;70.59
19594;BME280;9944;48.240;16.478;2023-01-30T15:33:45;99426.66;;;2.45;70.85
19594;BME280;9944;48.240;16.478;2023-01-30T15:37:50;99423.06;;;2.40;70.91
19594;BME280;9944;48.240;16.478;2023-01-30T15:42:00;99434.19;;;2.33;71.42
19594;BME280;9944;48.240;16.478;2023-01-30T15:46:12;99446.22;;;2.28;71.49
19594;BME280;9944;48.240;16.478;2023-01-30T15:50:18;99447.81;;;2.23;71.99
19594;BME280;9944;48.240;16.478;2023-01-30T15:54:22;99460.75;;;2.20;72.09
19594;BME280;9944;48.240;16.478;2023-01-30T15:58:27;99471.97;;;2.15;72.26
19594;BME280;9944;48.240;16.478;2023-01-30T16:02:32;99470.22;;;2.16;72.54
19594;BME280;9944;48.240;16.478;2023-01-30T16:06:37;99476.38;;;2.20;72.59
19594;BME280;9944;48.240;16.478;2023-01-30T16:10:44;99480.84;;;2.24;72.42
19594;BME280;9944;48.240;16.478;2023-01-30T16:14:48;99500.00;;;2.26;72.65
19594;BME280;9944;48.240;16.478;2023-01-30T16:18:53;99507.03;;;2.30;72.64
19594;BME280;9944;48.240;16.478;2023-01-30T16:22:57;99500.13;;;2.32;72.57
19594;BME280;9944;48.240;16.478;2023-01-30T16:27:03;99510.63;;;2.35;72.39
19594;BME280;9944;48.240;16.478;2023-01-30T16:31:10;99513.34;;;2.40;72.31
19594;BME280;9944;48.240;16.478;2023-01-30T16:35:15;99525.50;;;2.41;72.28
19594;BME280;9944;48.240;16.478;2023-01-30T16:39:29;99547.31;;;2.44;72.29
19594;BME280;9944;48.240;16.478;2023-01-30T16:43:33;99538.66;;;2.45;72.49
19594;BME280;9944;48.240;16.478;2023-01-30T16:47:37;99527.47;;;2.48;72.46
19594;BME280;9944;48.240;16.478;2023-01-30T16:51:41;99517.03;;;2.48;72.54
19594;BME280;9944;48.240;16.478;2023-01-30T16:55:55;99530.06;;;2.49;72.78
19594;BME280;9944;48.240;16.478;2023-01-30T16:59:59;99518.00;;;2.51;72.55
19594;BME280;9944;48.240;16.478;2023-01-30T17:04:13;99518.84;;;2.52;72.83
19594;BME280;9944;48.240;16.478;2023-01-30T17:08:44;99525.91;;;2.56;72.82
19594;BME280;9944;48.240;16.478;2023-01-30T17:12:48;99523.25;;;2.55;72.88
19594;BME280;9944;48.240;16.478;2023-01-30T17:17:01;99523.25;;;2.55;72.85
19594;BME280;9944;48.240;16.478;2023-01-30T17:21:08;99516.28;;;2.53;72.75
19594;BME280;9944;48.240;16.478;2023-01-30T17:25:16;99518.81;;;2.50;72.78
19594;BME280;9944;48.240;16.478;2023-01-30T17:29:21;99517.81;;;2.45;72.77
19594;BME280;9944;48.240;16.478;2023-01-30T17:33:42;99531.75;;;2.47;72.83
19594;BME280;9944;48.240;16.478;2023-01-30T17:37:47;99539.44;;;2.41;72.82
19594;BME280;9944;48.240;16.478;2023-01-30T17:42:08;99516.75;;;2.37;73.00
19594;BME280;9944;48.240;16.478;2023-01-30T17:46:12;99524.56;;;2.37;73.13
19594;BME280;9944;48.240;16.478;2023-01-30T17:50:16;99519.31;;;2.34;72.83
19594;BME280;9944;48.240;16.478;2023-01-30T17:54:21;99519.31;;;2.34;72.97
19594;BME280;9944;48.240;16.478;2023-01-30T17:58:25;99527.13;;;2.34;72.97
19594;BME280;9944;48.240;16.478;2023-01-30T18:02:29;99531.47;;;2.35;72.90
19594;BME280;9944;48.240;16.478;2023-01-30T18:06:33;99534.97;;;2.37;72.84
19594;BME280;9944;48.240;16.478;2023-01-30T18:10:38;99534.09;;;2.37;72.65
19594;BME280;9944;48.240;16.478;2023-01-30T18:14:41;99549.75;;;2.37;72.39
19594;BME280;9944;48.240;16.478;2023-01-30T18:18:44;99531.59;;;2.40;72.20
19594;BME280;9944;48.240;16.478;2023-01-30T18:22:48;99550.69;;;2.40;72.23
19594;BME280;9944;48.240;16.478;2023-01-30T18:26:52;99542.09;;;2.44;72.05
19594;BME280;9944;48.240;16.478;2023-01-30T18:30:55;99529.19;;;2.49;72.15
19594;BME280;9944;48.240;16.478;2023-01-30T18:34:59;99537.88;;;2.49;72.17
19594;BME280;9944;48.240;16.478;2023-01-30T18:39:03;99537.09;;;2.52;71.78
19594;BME280;9944;48.240;16.478;2023-01-30T18:43:08;99533.66;;;2.55;71.76
19594;BME280;9944;48.240;16.478;2023-01-30T18:47:11;99532.00;;;2.57;71.80
19594;BME280;9944;48.240;16.478;2023-01-30T18:51:16;99530.31;;;2.59;71.87
19594;BME280;9944;48.240;16.478;2023-01-30T18:55:19;99529.53;;;2.63;71.44
19594;BME280;9944;48.240;16.478;2023-01-30T18:59:27;99549.59;;;2.67;71.61
19594;BME280;9944;48.240;16.478;2023-01-30T19:03:30;99537.56;;;2.70;71.65
19594;BME280;9944;48.240;16.478;2023-01-30T19:07:34;99551.53;;;2.74;71.36
19594;BME280;9944;48.240;16.478;2023-01-30T19:11:37;99548.06;;;2.75;71.18
19594;BME280;9944;48.240;16.478;2023-01-30T19:16:01;99560.25;;;2.76;71.33
19594;BME280;9944;48.240;16.478;2023-01-30T19:20:05;99549.00;;;2.79;71.33
19594;BME280;9944;48.240;16.478;2023-01-30T19:24:13;99568.22;;;2.82;71.11
19594;BME280;9944;48.240;16.478;2023-01-30T19:28:17;99576.06;;;2.84;71.05
19594;BME280;9944;48.240;16.478;2023-01-30T19:32:21;99570.91;;;2.85;71.49
19594;BME280;9944;48.240;16.478;2023-01-30T19:36:25;99572.59;;;2.83;71.83
19594;BME280;9944;48.240;16.478;2023-01-30T19:40:30;99559.41;;;2.77;72.12
19594;BME280;9944;48.240;16.478;2023-01-30T19:44:33;99569.78;;;2.74;72.47
19594;BME280;9944;48.240;16.478;2023-01-30T19:48:39;99560.13;;;2.71;72.35
19594;BME280;9944;48.240;16.478;2023-01-30T19:52:42;99564.47;;;2.71;72.20
19594;BME280;9944;48.240;16.478;2023-01-30T19:56:45;99568.84;;;2.72;72.30
19594;BME280;9944;48.240;16.478;2023-01-30T20:00:49;99561.06;;;2.74;72.05
19594;BME280;9944;48.240;16.478;2023-01-30T20:04:54;99573.16;;;2.71;72.12
19594;BME280;9944;48.240;16.478;2023-01-30T20:09:00;99570.59;;;2.73;71.94
19594;BME280;9944;48.240;16.478;2023-01-30T20:13:04;99568.84;;;2.72;71.89
19594;BME280;9944;48.240;16.478;2023-01-30T20:17:07;99570.69;;;2.76;71.81
19594;BME280;9944;48.240;16.478;2023-01-30T20:21:14;99554.97;;;2.73;71.66
19594;BME280;9944;48.240;16.478;2023-01-30T20:25:17;99554.00;;;2.69;71.50
19594;BME280;9944;48.240;16.478;2023-01-30T20:29:20;99547.97;;;2.70;71.35
19594;BME280;9944;48.240;16.478;2023-01-30T20:33:23;99545.38;;;2.70;71.23
19594;BME280;9944;48.240;16.478;2023-01-30T20:37:28;99565.44;;;2.75;71.10
19594;BME280;9944;48.240;16.478;2023-01-30T20:41:31;99571.44;;;2.72;71.00
19594;BME280;9944;48.240;16.478;2023-01-30T20:45:36;99572.38;;;2.74;70.88
19594;BME280;9944;48.240;16.478;2023-01-30T20:49:39;99553.34;;;2.78;70.68
19594;BME280;9944;48.240;16.478;2023-01-30T20:53:48;99544.72;;;2.81;69.95
19594;BME280;9944;48.240;16.478;2023-01-30T20:57:51;99550.81;;;2.81;70.13
19594;BME280;9944;48.240;16.478;2023-01-30T21:01:54;99543.00;;;2.81;70.25
19594;BME280;9944;48.240;16.478;2023-01-30T21:05:58;99557.69;;;2.78;70.68
19594;BME280;9944;48.240;16.478;2023-01-30T21:10:04;99542.03;;;2.76;71.22
19594;BME280;9944;48.240;16.478;2023-01-30T21:14:08;99558.41;;;2.72;71.50
19594;BME280;9944;48.240;16.478;2023-01-30T21:18:11;99570.53;;;2.70;71.45
19594;BME280;9944;48.240;16.478;2023-01-30T21:22:14;99560.94;;;2.67;71.88
19594;BME280;9944;48.240;16.478;2023-01-30T21:26:20;99568.69;;;2.66;72.12
19594;BME280;9944;48.240;16.478;2023-01-30T21:30:23;99575.53;;;2.61;72.49
19594;BME280;9944;48.240;16.478;2023-01-30T21:34:26;99595.53;;;2.62;72.60
19594;BME280;9944;48.240;16.478;2023-01-30T21:38:29;99588.56;;;2.61;72.80
19594;BME280;9944;48.240;16.478;2023-01-30T21:42:52;99571.13;;;2.60;72.84
19594;BME280;9944;48.240;16.478;2023-01-30T21:47:12;99599.75;;;2.57;72.92
19594;BME280;9944;48.240;16.478;2023-01-30T21:51:15;99611.84;;;2.55;72.84
19594;BME280;9944;48.240;16.478;2023-01-30T21:55:18;99620.59;;;2.57;73.22
19594;BME280;9944;48.240;16.478;2023-01-30T21:59:23;99616.25;;;2.57;73.55
19594;BME280;9944;48.240;16.478;2023-01-30T22:03:26;99612.78;;;2.58;73.53
19594;BME280;9944;48.240;16.478;2023-01-30T22:07:30;99605.78;;;2.56;73.31
19594;BME280;9944;48.240;16.478;2023-01-30T22:11:35;99623.22;;;2.58;72.96